sensor_id;sensor_type;location;lat;lon;timestamp;pressure;altitude;pressure_sealevel;temperature;humidity
59168;BME280;70412;55.048;73.268;2023-07-13T00:02:42;99485.47;;;24.00;43.35
59168;BME280;70412;55.048;73.268;2023-07-13T00:05:45;99480.69;;;24.08;43.98
59168;BME280;70412;55.048;73.268;2023-07-13T00:08:47;99496.09;;;24.19;44.50
59168;BME280;70412;55.048;73.268;2023-07-13T00:11:53;99492.69;;;24.31;42.86
59168;BME280;70412;55.048;73.268;2023-07-13T00:14:58;99463.06;;;24.26;43.29
59168;BME280;70412;55.048;73.268;2023-07-13T00:18:01;99483.00;;;24.61;43.09
59168;BME280;70412;55.048;73.268;2023-07-13T00:21:04;99480.25;;;24.74;42.51
59168;BME280;70412;55.048;73.268;2023-07-13T00:24:08;99481.94;;;25.12;41.57
59168;BME280;70412;55.048;73.268;2023-07-13T00:27:14;99467.81;;;24.98;41.59
59168;BME280;70412;55.048;73.268;2023-07-13T00:30:17;99472.88;;;25.50;41.02
59168;BME280;70412;55.048;73.268;2023-07-13T00:33:20;99457.88;;;24.81;42.69
59168;BME280;70412;55.048;73.268;2023-07-13T00:36:24;99477.47;;;25.06;42.64
59168;BME280;70412;55.048;73.268;2023-07-13T00:39:27;99469.94;;;25.33;41.49
59168;BME280;70412;55.048;73.268;2023-07-13T00:42:30;99466.16;;;25.22;41.68
59168;BME280;70412;55.048;73.268;2023-07-13T00:48:35;99463.97;;;25.13;43.60
59168;BME280;70412;55.048;73.268;2023-07-13T00:51:43;99467.75;;;24.87;43.91
59168;BME280;70412;55.048;73.268;2023-07-13T00:54:47;99457.22;;;25.47;45.02
59168;BME280;70412;55.048;73.268;2023-07-13T00:57:50;99474.34;;;25.64;42.96
59168;BME280;70412;55.048;73.268;2023-07-13T01:00:52;99462.84;;;25.02;42.96
59168;BME280;70412;55.048;73.268;2023-07-13T01:03:55;99497.19;;;24.93;44.48
59168;BME280;70412;55.048;73.268;2023-07-13T01:07:00;99503.19;;;24.64;45.45
59168;BME280;70412;55.048;73.268;2023-07-13T01:10:21;99498.28;;;24.86;43.72
59168;BME280;70412;55.048;73.268;2023-07-13T01:13:40;99490.59;;;24.39;44.18
59168;BME280;70412;55.048;73.268;2023-07-13T01:16:46;99492.00;;;24.10;46.20
59168;BME280;70412;55.048;73.268;2023-07-13T01:19:51;99478.31;;;23.87;46.13
59168;BME280;70412;55.048;73.268;2023-07-13T01:22:53;99493.91;;;24.03;46.52
59168;BME280;70412;55.048;73.268;2023-07-13T01:25:57;99470.91;;;23.82;46.99
59168;BME280;70412;55.048;73.268;2023-07-13T01:29:01;99476.25;;;23.89;46.60
59168;BME280;70412;55.048;73.268;2023-07-13T01:32:05;99480.72;;;24.02;47.24
59168;BME280;70412;55.048;73.268;2023-07-13T01:35:10;99476.31;;;23.76;48.60
59168;BME280;70412;55.048;73.268;2023-07-13T01:38:16;99446.50;;;23.97;47.56
59168;BME280;70412;55.048;73.268;2023-07-13T01:41:19;99453.25;;;25.31;44.61
59168;BME280;70412;55.048;73.268;2023-07-13T01:44:23;99446.28;;;25.78;43.79
59168;BME280;70412;55.048;73.268;2023-07-13T01:47:25;99449.25;;;25.88;43.58
59168;BME280;70412;55.048;73.268;2023-07-13T01:50:28;99441.41;;;26.17;44.53
59168;BME280;70412;55.048;73.268;2023-07-13T01:53:30;99451.44;;;26.10;43.67
59168;BME280;70412;55.048;73.268;2023-07-13T01:56:33;99444.75;;;26.42;43.26
59168;BME280;70412;55.048;73.268;2023-07-13T01:59:35;99441.63;;;26.92;42.13
59168;BME280;70412;55.048;73.268;2023-07-13T02:02:38;99433.56;;;26.92;41.97
59168;BME280;70412;55.048;73.268;2023-07-13T02:05:40;99428.13;;;26.22;42.09
59168;BME280;70412;55.048;73.268;2023-07-13T02:08:59;99423.59;;;26.69;41.97
59168;BME280;70412;55.048;73.268;2023-07-13T02:12:02;99431.19;;;27.31;40.13
59168;BME280;70412;55.048;73.268;2023-07-13T02:15:09;99421.00;;;26.63;41.22
59168;BME280;70412;55.048;73.268;2023-07-13T02:18:12;99430.47;;;26.53;40.38
59168;BME280;70412;55.048;73.268;2023-07-13T02:21:19;99426.94;;;27.35;39.61
59168;BME280;70412;55.048;73.268;2023-07-13T02:24:21;99427.84;;;27.52;40.57
59168;BME280;70412;55.048;73.268;2023-07-13T02:27:24;99421.38;;;27.01;40.19
59168;BME280;70412;55.048;73.268;2023-07-13T02:30:27;99424.44;;;27.57;39.21
59168;BME280;70412;55.048;73.268;2023-07-13T02:33:31;99427.34;;;26.80;39.73
59168;BME280;70412;55.048;73.268;2023-07-13T02:36:34;99421.38;;;27.53;39.93
59168;BME280;70412;55.048;73.268;2023-07-13T02:39:36;99410.53;;;27.48;40.70
59168;BME280;70412;55.048;73.268;2023-07-13T02:42:39;99407.34;;;27.80;37.57
59168;BME280;70412;55.048;73.268;2023-07-13T02:45:45;99408.16;;;27.80;39.32
59168;BME280;70412;55.048;73.268;2023-07-13T02:48:48;99401.97;;;28.42;38.03
59168;BME280;70412;55.048;73.268;2023-07-13T02:51:51;99418.44;;;27.95;38.60
59168;BME280;70412;55.048;73.268;2023-07-13T02:54:53;99408.72;;;28.78;37.57
59168;BME280;70412;55.048;73.268;2023-07-13T02:57:56;99413.41;;;27.87;38.86
59168;BME280;70412;55.048;73.268;2023-07-13T03:00:59;99413.66;;;28.64;37.20
59168;BME280;70412;55.048;73.268;2023-07-13T03:04:02;99404.28;;;28.88;36.92
59168;BME280;70412;55.048;73.268;2023-07-13T03:07:11;99378.81;;;28.79;37.20
59168;BME280;70412;55.048;73.268;2023-07-13T03:10:20;99395.38;;;29.53;36.84
59168;BME280;70412;55.048;73.268;2023-07-13T03:13:25;99394.81;;;28.02;37.11
59168;BME280;70412;55.048;73.268;2023-07-13T03:16:28;99398.97;;;29.37;36.88
59168;BME280;70412;55.048;73.268;2023-07-13T03:19:31;99397.50;;;28.47;36.60
59168;BME280;70412;55.048;73.268;2023-07-13T03:22:34;99401.44;;;29.88;37.76
59168;BME280;70412;55.048;73.268;2023-07-13T03:25:37;99395.22;;;29.16;37.84
59168;BME280;70412;55.048;73.268;2023-07-13T03:28:40;99392.13;;;30.05;37.01
59168;BME280;70412;55.048;73.268;2023-07-13T03:31:46;99381.44;;;28.74;36.72
59168;BME280;70412;55.048;73.268;2023-07-13T03:34:49;99394.28;;;29.06;35.80
59168;BME280;70412;55.048;73.268;2023-07-13T03:37:55;99399.53;;;29.39;35.44
59168;BME280;70412;55.048;73.268;2023-07-13T03:40:58;99418.38;;;28.90;36.88
59168;BME280;70412;55.048;73.268;2023-07-13T03:44:02;99404.81;;;30.00;36.00
59168;BME280;70412;55.048;73.268;2023-07-13T03:47:05;99399.28;;;31.48;34.87
59168;BME280;70412;55.048;73.268;2023-07-13T03:50:08;99373.19;;;30.00;34.92
59168;BME280;70412;55.048;73.268;2023-07-13T03:53:10;99391.59;;;30.72;35.57
59168;BME280;70412;55.048;73.268;2023-07-13T03:56:14;99389.72;;;29.55;34.13
59168;BME280;70412;55.048;73.268;2023-07-13T03:59:19;99382.94;;;30.33;34.27
59168;BME280;70412;55.048;73.268;2023-07-13T04:02:22;99394.91;;;30.10;33.63
59168;BME280;70412;55.048;73.268;2023-07-13T04:05:24;99393.03;;;30.43;34.11
59168;BME280;70412;55.048;73.268;2023-07-13T04:08:28;99396.78;;;29.78;34.34
59168;BME280;70412;55.048;73.268;2023-07-13T04:11:31;99394.69;;;29.90;33.69
59168;BME280;70412;55.048;73.268;2023-07-13T04:14:35;99390.63;;;30.47;33.01
59168;BME280;70412;55.048;73.268;2023-07-13T04:17:37;99388.88;;;30.03;32.56
59168;BME280;70412;55.048;73.268;2023-07-13T04:20:40;99393.59;;;30.50;33.05
59168;BME280;70412;55.048;73.268;2023-07-13T04:23:42;99370.44;;;31.17;32.97
59168;BME280;70412;55.048;73.268;2023-07-13T04:26:45;99387.59;;;31.38;32.64
59168;BME280;70412;55.048;73.268;2023-07-13T04:29:47;99390.84;;;31.40;33.35
59168;BME280;70412;55.048;73.268;2023-07-13T04:32:51;99384.50;;;30.61;32.46
59168;BME280;70412;55.048;73.268;2023-07-13T04:35:55;99392.75;;;30.82;32.80
59168;BME280;70412;55.048;73.268;2023-07-13T04:39:06;99382.59;;;31.09;33.69
59168;BME280;70412;55.048;73.268;2023-07-13T04:42:08;99387.75;;;32.19;32.51
59168;BME280;70412;55.048;73.268;2023-07-13T04:45:12;99387.78;;;31.21;32.35
59168;BME280;70412;55.048;73.268;2023-07-13T04:48:14;99372.66;;;30.72;31.91
59168;BME280;70412;55.048;73.268;2023-07-13T04:51:17;99384.78;;;32.36;30.18
59168;BME280;70412;55.048;73.268;2023-07-13T04:54:23;99382.84;;;31.90;31.75
59168;BME280;70412;55.048;73.268;2023-07-13T04:57:28;99372.84;;;32.27;29.15
59168;BME280;70412;55.048;73.268;2023-07-13T05:00:31;99369.72;;;31.37;31.32
59168;BME280;70412;55.048;73.268;2023-07-13T05:03:34;99387.91;;;31.51;30.46
59168;BME280;70412;55.048;73.268;2023-07-13T05:06:36;99369.19;;;32.92;30.68
59168;BME280;70412;55.048;73.268;2023-07-13T05:09:39;99370.00;;;33.57;28.04
59168;BME280;70412;55.048;73.268;2023-07-13T05:12:56;99387.97;;;32.73;29.14
59168;BME280;70412;55.048;73.268;2023-07-13T05:16:15;99385.19;;;33.63;30.51
59168;BME280;70412;55.048;73.268;2023-07-13T05:19:17;99378.16;;;33.57;27.33
59168;BME280;70412;55.048;73.268;2023-07-13T05:22:20;99389.38;;;32.50;31.09
59168;BME280;70412;55.048;73.268;2023-07-13T05:25:22;99388.16;;;33.13;28.61
59168;BME280;70412;55.048;73.268;2023-07-13T05:28:26;99381.09;;;34.05;27.12
59168;BME280;70412;55.048;73.268;2023-07-13T05:31:29;99372.94;;;34.92;27.52
59168;BME280;70412;55.048;73.268;2023-07-13T05:34:34;99365.13;;;34.85;28.59
59168;BME280;70412;55.048;73.268;2023-07-13T05:37:38;99379.22;;;35.35;26.99
59168;BME280;70412;55.048;73.268;2023-07-13T05:40:43;99363.16;;;34.04;28.49
59168;BME280;70412;55.048;73.268;2023-07-13T05:43:45;99370.09;;;34.20;27.97
59168;BME280;70412;55.048;73.268;2023-07-13T05:46:48;99362.09;;;34.63;28.85
59168;BME280;70412;55.048;73.268;2023-07-13T05:49:50;99359.47;;;34.53;28.07
59168;BME280;70412;55.048;73.268;2023-07-13T05:52:53;99350.78;;;34.99;28.81
59168;BME280;70412;55.048;73.268;2023-07-13T05:55:55;99363.66;;;35.92;24.97
59168;BME280;70412;55.048;73.268;2023-07-13T05:58:58;99346.91;;;35.48;27.06
59168;BME280;70412;55.048;73.268;2023-07-13T06:02:00;99332.34;;;34.91;26.59
59168;BME280;70412;55.048;73.268;2023-07-13T06:05:03;99343.28;;;36.03;25.03
59168;BME280;70412;55.048;73.268;2023-07-13T06:08:06;99340.41;;;34.53;26.14
59168;BME280;70412;55.048;73.268;2023-07-13T06:11:15;99341.22;;;35.82;25.94
59168;BME280;70412;55.048;73.268;2023-07-13T06:14:18;99335.13;;;36.77;25.64
59168;BME280;70412;55.048;73.268;2023-07-13T06:17:22;99338.13;;;36.02;25.67
59168;BME280;70412;55.048;73.268;2023-07-13T06:20:25;99335.66;;;34.88;27.36
59168;BME280;70412;55.048;73.268;2023-07-13T06:23:27;99332.22;;;34.53;26.32
59168;BME280;70412;55.048;73.268;2023-07-13T06:26:30;99333.66;;;35.92;27.12
59168;BME280;70412;55.048;73.268;2023-07-13T06:29:33;99328.19;;;35.92;26.59
59168;BME280;70412;55.048;73.268;2023-07-13T06:32:36;99317.47;;;36.15;26.91
59168;BME280;70412;55.048;73.268;2023-07-13T06:35:38;99314.88;;;35.72;26.13
59168;BME280;70412;55.048;73.268;2023-07-13T06:38:40;99297.94;;;35.56;24.88
59168;BME280;70412;55.048;73.268;2023-07-13T06:41:43;99311.34;;;35.53;26.51
59168;BME280;70412;55.048;73.268;2023-07-13T06:44:49;99313.38;;;35.98;24.59
59168;BME280;70412;55.048;73.268;2023-07-13T06:47:51;99291.03;;;36.84;24.45
59168;BME280;70412;55.048;73.268;2023-07-13T06:50:57;99304.47;;;36.94;22.94
59168;BME280;70412;55.048;73.268;2023-07-13T06:53:59;99309.94;;;36.07;25.93
59168;BME280;70412;55.048;73.268;2023-07-13T06:57:02;99309.34;;;35.96;25.06
59168;BME280;70412;55.048;73.268;2023-07-13T07:00:05;99304.78;;;35.16;25.83
59168;BME280;70412;55.048;73.268;2023-07-13T07:03:09;99297.88;;;36.40;24.98
59168;BME280;70412;55.048;73.268;2023-07-13T07:06:17;99287.75;;;36.96;24.43
59168;BME280;70412;55.048;73.268;2023-07-13T07:09:20;99290.41;;;37.59;24.08
59168;BME280;70412;55.048;73.268;2023-07-13T07:12:22;99297.06;;;35.80;25.08
59168;BME280;70412;55.048;73.268;2023-07-13T07:15:25;99295.69;;;35.77;25.03
59168;BME280;70412;55.048;73.268;2023-07-13T07:18:28;99294.94;;;37.41;25.56
59168;BME280;70412;55.048;73.268;2023-07-13T07:21:31;99305.75;;;35.63;29.19
59168;BME280;70412;55.048;73.268;2023-07-13T07:24:34;99294.91;;;37.33;26.54
59168;BME280;70412;55.048;73.268;2023-07-13T07:27:36;99298.09;;;35.65;27.71
59168;BME280;70412;55.048;73.268;2023-07-13T07:30:42;99276.53;;;36.97;25.91
59168;BME280;70412;55.048;73.268;2023-07-13T07:33:45;99284.47;;;35.97;28.00
59168;BME280;70412;55.048;73.268;2023-07-13T07:36:47;99278.19;;;36.29;26.59
59168;BME280;70412;55.048;73.268;2023-07-13T07:39:50;99274.22;;;35.89;27.11
59168;BME280;70412;55.048;73.268;2023-07-13T07:42:52;99284.50;;;35.60;27.00
59168;BME280;70412;55.048;73.268;2023-07-13T07:45:55;99283.53;;;36.34;28.97
59168;BME280;70412;55.048;73.268;2023-07-13T07:48:57;99282.50;;;36.99;25.10
59168;BME280;70412;55.048;73.268;2023-07-13T07:52:00;99278.41;;;36.00;26.39
59168;BME280;70412;55.048;73.268;2023-07-13T07:55:04;99283.06;;;37.10;25.63
59168;BME280;70412;55.048;73.268;2023-07-13T07:58:07;99275.38;;;38.15;25.91
59168;BME280;70412;55.048;73.268;2023-07-13T08:01:10;99271.94;;;37.06;25.42
59168;BME280;70412;55.048;73.268;2023-07-13T08:04:13;99264.47;;;36.16;25.53
59168;BME280;70412;55.048;73.268;2023-07-13T08:07:16;99263.69;;;37.34;24.93
59168;BME280;70412;55.048;73.268;2023-07-13T08:10:19;99264.03;;;38.08;25.40
59168;BME280;70412;55.048;73.268;2023-07-13T08:13:21;99272.34;;;37.72;24.35
59168;BME280;70412;55.048;73.268;2023-07-13T08:16:24;99269.94;;;38.01;23.71
59168;BME280;70412;55.048;73.268;2023-07-13T08:19:26;99260.28;;;36.51;21.67
59168;BME280;70412;55.048;73.268;2023-07-13T08:22:28;99259.72;;;36.90;22.36
59168;BME280;70412;55.048;73.268;2023-07-13T08:25:31;99257.28;;;37.61;19.41
59168;BME280;70412;55.048;73.268;2023-07-13T08:28:33;99262.09;;;36.55;22.59
59168;BME280;70412;55.048;73.268;2023-07-13T08:31:36;99256.50;;;36.19;20.75
59168;BME280;70412;55.048;73.268;2023-07-13T08:34:38;99260.28;;;36.37;19.31
59168;BME280;70412;55.048;73.268;2023-07-13T08:37:40;99242.06;;;37.10;18.24
59168;BME280;70412;55.048;73.268;2023-07-13T08:40:43;99230.91;;;36.56;18.88
59168;BME280;70412;55.048;73.268;2023-07-13T08:43:49;99254.06;;;36.18;20.09
59168;BME280;70412;55.048;73.268;2023-07-13T08:46:52;99245.31;;;36.48;20.97
59168;BME280;70412;55.048;73.268;2023-07-13T08:49:56;99249.84;;;35.79;20.67
59168;BME280;70412;55.048;73.268;2023-07-13T08:53:00;99241.81;;;37.56;21.47
59168;BME280;70412;55.048;73.268;2023-07-13T08:56:04;99251.84;;;36.61;21.46
59168;BME280;70412;55.048;73.268;2023-07-13T08:59:17;99250.53;;;36.86;22.03
59168;BME280;70412;55.048;73.268;2023-07-13T09:02:46;99237.81;;;36.81;20.94
59168;BME280;70412;55.048;73.268;2023-07-13T09:05:57;99241.19;;;37.59;21.48
59168;BME280;70412;55.048;73.268;2023-07-13T09:09:14;99233.41;;;36.12;20.79
59168;BME280;70412;55.048;73.268;2023-07-13T09:12:39;99222.22;;;36.13;20.71
59168;BME280;70412;55.048;73.268;2023-07-13T09:15:46;99236.31;;;36.34;21.07
59168;BME280;70412;55.048;73.268;2023-07-13T09:18:52;99231.84;;;36.38;21.24
59168;BME280;70412;55.048;73.268;2023-07-13T09:21:57;99229.22;;;36.33;20.38
59168;BME280;70412;55.048;73.268;2023-07-13T09:25:18;99235.06;;;36.68;20.12
59168;BME280;70412;55.048;73.268;2023-07-13T09:28:29;99232.09;;;35.95;19.83
59168;BME280;70412;55.048;73.268;2023-07-13T09:31:42;99223.16;;;36.36;19.22
59168;BME280;70412;55.048;73.268;2023-07-13T09:34:51;99223.03;;;36.55;20.31
59168;BME280;70412;55.048;73.268;2023-07-13T09:38:31;99218.75;;;36.62;20.06
59168;BME280;70412;55.048;73.268;2023-07-13T09:42:16;99212.81;;;36.05;22.56
59168;BME280;70412;55.048;73.268;2023-07-13T09:45:00;99218.69;;;36.40;22.42
59168;BME280;70412;55.048;73.268;2023-07-13T09:48:12;99216.81;;;37.49;21.26
59168;BME280;70412;55.048;73.268;2023-07-13T09:51:15;99219.44;;;36.32;19.97
59168;BME280;70412;55.048;73.268;2023-07-13T09:54:20;99177.84;;;37.66;20.14
59168;BME280;70412;55.048;73.268;2023-07-13T09:57:23;99210.78;;;38.23;21.65
59168;BME280;70412;55.048;73.268;2023-07-13T10:00:29;99213.53;;;36.66;21.33
59168;BME280;70412;55.048;73.268;2023-07-13T10:03:34;99201.53;;;36.89;20.13
59168;BME280;70412;55.048;73.268;2023-07-13T10:06:41;99213.28;;;36.62;21.15
59168;BME280;70412;55.048;73.268;2023-07-13T10:09:44;99217.38;;;36.51;20.86
59168;BME280;70412;55.048;73.268;2023-07-13T10:12:47;99203.59;;;37.65;21.05
59168;BME280;70412;55.048;73.268;2023-07-13T10:15:49;99209.09;;;37.29;19.43
59168;BME280;70412;55.048;73.268;2023-07-13T10:18:55;99204.72;;;36.42;20.55
59168;BME280;70412;55.048;73.268;2023-07-13T10:22:14;99190.25;;;36.82;20.41
59168;BME280;70412;55.048;73.268;2023-07-13T10:25:23;99197.50;;;36.87;20.55
59168;BME280;70412;55.048;73.268;2023-07-13T10:28:33;99193.56;;;37.15;20.79
59168;BME280;70412;55.048;73.268;2023-07-13T10:31:38;99202.63;;;37.02;20.89
59168;BME280;70412;55.048;73.268;2023-07-13T10:34:43;99200.75;;;36.61;21.52
59168;BME280;70412;55.048;73.268;2023-07-13T10:37:53;99190.34;;;37.13;21.43
59168;BME280;70412;55.048;73.268;2023-07-13T10:41:14;99182.22;;;37.08;21.42
59168;BME280;70412;55.048;73.268;2023-07-13T10:44:38;99186.66;;;36.32;20.66
59168;BME280;70412;55.048;73.268;2023-07-13T10:47:42;99180.59;;;36.35;20.74
59168;BME280;70412;55.048;73.268;2023-07-13T10:50:48;99175.81;;;36.90;21.12
59168;BME280;70412;55.048;73.268;2023-07-13T10:54:15;99181.41;;;35.75;22.30
59168;BME280;70412;55.048;73.268;2023-07-13T10:57:20;99178.25;;;36.01;21.21
59168;BME280;70412;55.048;73.268;2023-07-13T11:00:23;99166.50;;;36.28;21.16
59168;BME280;70412;55.048;73.268;2023-07-13T11:03:28;99174.28;;;35.93;21.49
59168;BME280;70412;55.048;73.268;2023-07-13T11:06:39;99173.06;;;36.54;22.32
59168;BME280;70412;55.048;73.268;2023-07-13T11:09:53;99175.09;;;36.99;20.81
59168;BME280;70412;55.048;73.268;2023-07-13T11:12:56;99159.09;;;37.59;20.32
59168;BME280;70412;55.048;73.268;2023-07-13T11:15:58;99168.84;;;36.48;19.86
59168;BME280;70412;55.048;73.268;2023-07-13T11:22:12;99175.41;;;35.46;21.59
59168;BME280;70412;55.048;73.268;2023-07-13T11:25:33;99167.84;;;35.57;21.77
59168;BME280;70412;55.048;73.268;2023-07-13T11:28:37;99165.97;;;36.26;20.80
59168;BME280;70412;55.048;73.268;2023-07-13T11:31:42;99158.03;;;37.15;21.32
59168;BME280;70412;55.048;73.268;2023-07-13T11:34:45;99157.13;;;37.06;20.10
59168;BME280;70412;55.048;73.268;2023-07-13T11:37:48;99144.25;;;35.93;21.81
59168;BME280;70412;55.048;73.268;2023-07-13T11:40:54;99147.50;;;34.84;23.48
59168;BME280;70412;55.048;73.268;2023-07-13T11:44:29;99158.94;;;35.19;22.28
59168;BME280;70412;55.048;73.268;2023-07-13T11:47:32;99155.16;;;35.66;22.14
59168;BME280;70412;55.048;73.268;2023-07-13T11:50:34;99151.75;;;35.41;23.56
59168;BME280;70412;55.048;73.268;2023-07-13T11:53:43;99143.28;;;35.57;22.58
59168;BME280;70412;55.048;73.268;2023-07-13T12:00:25;99146.31;;;34.05;26.22
59168;BME280;70412;55.048;73.268;2023-07-13T12:03:32;99149.97;;;33.66;26.34
59168;BME280;70412;55.048;73.268;2023-07-13T12:06:36;99148.38;;;33.31;27.62
59168;BME280;70412;55.048;73.268;2023-07-13T12:09:41;99144.69;;;33.17;27.14
59168;BME280;70412;55.048;73.268;2023-07-13T12:12:48;99142.00;;;33.12;27.12
59168;BME280;70412;55.048;73.268;2023-07-13T12:15:51;99137.78;;;32.95;27.96
59168;BME280;70412;55.048;73.268;2023-07-13T12:18:55;99131.91;;;32.73;27.77
59168;BME280;70412;55.048;73.268;2023-07-13T12:21:59;99134.72;;;32.58;28.08
59168;BME280;70412;55.048;73.268;2023-07-13T12:25:01;99138.00;;;32.55;28.51
59168;BME280;70412;55.048;73.268;2023-07-13T12:28:20;99121.00;;;32.39;28.45
59168;BME280;70412;55.048;73.268;2023-07-13T12:34:56;99132.88;;;32.53;27.75
59168;BME280;70412;55.048;73.268;2023-07-13T12:37:59;99122.91;;;32.43;27.62
59168;BME280;70412;55.048;73.268;2023-07-13T12:41:02;99126.19;;;32.25;28.49
59168;BME280;70412;55.048;73.268;2023-07-13T12:44:11;99127.78;;;32.36;29.50
59168;BME280;70412;55.048;73.268;2023-07-13T12:47:15;99121.81;;;32.39;30.37
59168;BME280;70412;55.048;73.268;2023-07-13T12:50:20;99121.38;;;32.07;32.76
59168;BME280;70412;55.048;73.268;2023-07-13T12:53:28;99126.19;;;32.25;33.38
59168;BME280;70412;55.048;73.268;2023-07-13T12:56:33;99111.44;;;32.52;32.76
59168;BME280;70412;55.048;73.268;2023-07-13T12:59:36;99095.22;;;32.86;31.68
59168;BME280;70412;55.048;73.268;2023-07-13T13:02:38;99093.41;;;33.10;32.35
59168;BME280;70412;55.048;73.268;2023-07-13T13:05:41;99067.34;;;32.70;33.33
59168;BME280;70412;55.048;73.268;2023-07-13T13:08:49;99042.19;;;32.10;34.30
59168;BME280;70412;55.048;73.268;2023-07-13T13:11:51;99046.03;;;32.87;33.38
59168;BME280;70412;55.048;73.268;2023-07-13T13:14:54;99050.75;;;32.76;34.63
59168;BME280;70412;55.048;73.268;2023-07-13T13:17:57;99052.16;;;32.19;34.02
59168;BME280;70412;55.048;73.268;2023-07-13T13:21:00;99068.97;;;31.37;36.47
59168;BME280;70412;55.048;73.268;2023-07-13T13:24:13;99068.44;;;31.14;36.31
59168;BME280;70412;55.048;73.268;2023-07-13T13:27:22;99065.75;;;31.09;35.69
59168;BME280;70412;55.048;73.268;2023-07-13T13:30:24;99068.44;;;30.89;36.03
59168;BME280;70412;55.048;73.268;2023-07-13T13:33:27;99077.88;;;30.66;38.06
59168;BME280;70412;55.048;73.268;2023-07-13T13:36:29;99070.06;;;30.85;37.10
59168;BME280;70412;55.048;73.268;2023-07-13T13:39:35;99084.97;;;30.97;37.15
59168;BME280;70412;55.048;73.268;2023-07-13T13:42:38;99089.78;;;31.67;36.03
59168;BME280;70412;55.048;73.268;2023-07-13T13:45:40;99080.63;;;30.86;37.87
59168;BME280;70412;55.048;73.268;2023-07-13T13:48:44;99077.38;;;31.10;38.17
59168;BME280;70412;55.048;73.268;2023-07-13T13:51:48;99076.44;;;31.90;36.77
59168;BME280;70412;55.048;73.268;2023-07-13T13:54:51;99082.44;;;31.77;37.07
59168;BME280;70412;55.048;73.268;2023-07-13T13:57:58;99088.41;;;30.52;41.40
59168;BME280;70412;55.048;73.268;2023-07-13T14:01:00;99074.22;;;30.14;41.54
59168;BME280;70412;55.048;73.268;2023-07-13T14:04:03;99073.22;;;30.36;40.31
59168;BME280;70412;55.048;73.268;2023-07-13T14:07:07;99078.69;;;30.66;41.57
59168;BME280;70412;55.048;73.268;2023-07-13T14:10:15;99064.13;;;30.78;41.57
59168;BME280;70412;55.048;73.268;2023-07-13T14:13:21;99079.31;;;30.06;42.59
59168;BME280;70412;55.048;73.268;2023-07-13T14:16:30;99084.47;;;30.12;41.23
59168;BME280;70412;55.048;73.268;2023-07-13T14:19:35;99090.13;;;30.06;42.26
59168;BME280;70412;55.048;73.268;2023-07-13T14:22:40;99091.03;;;29.69;42.68
59168;BME280;70412;55.048;73.268;2023-07-13T14:25:46;99092.66;;;29.33;44.68
59168;BME280;70412;55.048;73.268;2023-07-13T14:28:55;99086.28;;;29.07;43.75
59168;BME280;70412;55.048;73.268;2023-07-13T14:31:57;99097.59;;;28.77;45.98
59168;BME280;70412;55.048;73.268;2023-07-13T14:35:00;99104.06;;;28.76;45.27
59168;BME280;70412;55.048;73.268;2023-07-13T14:38:02;99121.97;;;28.87;46.21
59168;BME280;70412;55.048;73.268;2023-07-13T14:41:05;99162.28;;;28.72;47.37
59168;BME280;70412;55.048;73.268;2023-07-13T14:44:17;99164.03;;;28.83;45.45
59168;BME280;70412;55.048;73.268;2023-07-13T14:47:21;99146.97;;;29.05;45.42
59168;BME280;70412;55.048;73.268;2023-07-13T14:50:31;99145.09;;;29.37;43.39
59168;BME280;70412;55.048;73.268;2023-07-13T14:53:34;99136.50;;;29.40;42.76
59168;BME280;70412;55.048;73.268;2023-07-13T14:56:37;99124.06;;;28.31;46.88
59168;BME280;70412;55.048;73.268;2023-07-13T14:59:40;99123.84;;;28.38;45.32
59168;BME280;70412;55.048;73.268;2023-07-13T15:02:47;99112.84;;;27.96;47.97
59168;BME280;70412;55.048;73.268;2023-07-13T15:05:50;99094.44;;;28.36;44.72
59168;BME280;70412;55.048;73.268;2023-07-13T15:08:52;99105.59;;;28.67;43.35
59168;BME280;70412;55.048;73.268;2023-07-13T15:11:56;99116.47;;;28.07;46.55
59168;BME280;70412;55.048;73.268;2023-07-13T15:14:58;99118.78;;;27.98;43.87
59168;BME280;70412;55.048;73.268;2023-07-13T15:18:01;99117.97;;;27.59;46.63
59168;BME280;70412;55.048;73.268;2023-07-13T15:21:04;99110.88;;;27.36;47.59
59168;BME280;70412;55.048;73.268;2023-07-13T15:24:11;99116.19;;;27.86;43.50
59168;BME280;70412;55.048;73.268;2023-07-13T15:27:13;99114.78;;;27.84;41.49
59168;BME280;70412;55.048;73.268;2023-07-13T15:30:16;99108.22;;;27.74;42.45
59168;BME280;70412;55.048;73.268;2023-07-13T15:36:25;99105.59;;;27.41;42.83
59168;BME280;70412;55.048;73.268;2023-07-13T15:39:27;99102.66;;;27.26;41.98
59168;BME280;70412;55.048;73.268;2023-07-13T15:42:33;99090.22;;;26.91;43.45
59168;BME280;70412;55.048;73.268;2023-07-13T15:45:38;99083.91;;;26.40;45.40
59168;BME280;70412;55.048;73.268;2023-07-13T15:48:41;99086.88;;;26.27;46.91
59168;BME280;70412;55.048;73.268;2023-07-13T15:51:43;99080.53;;;26.33;46.41
59168;BME280;70412;55.048;73.268;2023-07-13T15:54:47;99064.78;;;26.25;44.85
59168;BME280;70412;55.048;73.268;2023-07-13T15:57:52;99057.00;;;26.12;45.67
59168;BME280;70412;55.048;73.268;2023-07-13T16:00:55;99059.59;;;26.07;45.83
59168;BME280;70412;55.048;73.268;2023-07-13T16:03:57;99052.88;;;25.69;46.32
59168;BME280;70412;55.048;73.268;2023-07-13T16:07:00;99047.53;;;25.46;48.11
59168;BME280;70412;55.048;73.268;2023-07-13T16:10:03;99037.03;;;25.56;46.36
59168;BME280;70412;55.048;73.268;2023-07-13T16:13:13;99047.28;;;25.24;49.00
59168;BME280;70412;55.048;73.268;2023-07-13T16:16:18;99043.28;;;25.03;49.14
59168;BME280;70412;55.048;73.268;2023-07-13T16:19:21;99048.91;;;25.13;48.50
59168;BME280;70412;55.048;73.268;2023-07-13T16:22:30;99047.16;;;24.95;49.57
59168;BME280;70412;55.048;73.268;2023-07-13T16:25:33;99043.28;;;25.03;49.62